Latest Coastal Weather Observations for Holmes Reef

IDQ60701

Issued at 3:45 pm EST Friday 31 October 2014 (issued every 10 minutes, with the page automatically refreshed every 10 minutes)

About coastal observations | Map of coastal stations | Coastal observations for QLD | Marine services | Other Formats
Station Details ID: 200732 Name: HOLMES REEF Lat: -16.47 Lon: 147.87 Height: 1.9 m
Data from the previous 72 hours. | See also: Recent months at Holmes Reef
Date/Time
EST
Temp

°C
Wind Pressure Rain
since 9am
mm
Weather Cloud Vis
km
Sea
Height
m
Swell
Dir
 
Speed
knots
Gust
knots
hPa Trend Height
m
Period
s
Dir
31/03:30pm 25.9 ESE 11 14 1011.3 - - - - - - - - -
31/03:15pm 25.9 ESE 11 - 1011.0 - - - - - - - - -
31/03:00pm 26.0 E 9 11 1011.2 - - - - - - - - -
31/02:30pm 25.9 ESE 11 12 1011.5 - - - - - - - - -
31/02:15pm 25.9 SE 11 - 1011.4 - - - - - - - - -
31/02:00pm 25.9 ESE 11 13 1011.9 - - - - - - - - -
31/01:30pm 25.9 ESE 11 13 1012.2 - - - - - - - - -
31/01:15pm 25.8 ESE 11 - 1012.1 - - - - - - - - -
31/01:00pm 25.7 ESE 12 14 1012.6 - - - - - - - - -
31/12:30pm 25.7 ESE 11 13 1012.8 - - - - - - - - -
31/12:15pm 25.8 ESE 10 - 1012.7 - - - - - - - - -
31/12:00pm 25.8 E 10 11 1013.2 - - - - - - - - -
31/11:30am 25.8 E 11 13 1013.6 - - - - - - - - -
31/11:15am 26.0 E 11 - 1013.5 - - - - - - - - -
31/11:00am 25.8 E 11 13 1014.0 - - - - - - - - -
31/10:30am 25.8 ESE 11 13 1014.1 - - - - - - - - -
31/10:15am 25.9 E 11 - 1013.9 - - - - - - - - -
31/10:00am 26.1 E 10 12 1014.2 - - - - - - - - -
31/09:30am 26.0 E 11 12 1014.3 - - - - - - - - -
31/09:15am 26.0 E 11 - 1013.9 - - - - - - - - -
31/09:00am 25.8 E 11 13 1014.2 - - - - - - - - -
31/08:30am 25.7 E 10 12 1014.0 - - - - - - - - -
31/08:15am 25.9 E 10 - 1013.7 - - - - - - - - -
31/08:00am 25.7 E 11 13 1014.0 - - - - - - - - -
31/07:30am 25.7 E 12 13 1013.7 - - - - - - - - -
31/07:15am 25.6 E 13 - 1013.2 - - - - - - - - -
31/07:00am 25.6 E 11 14 1013.3 - - - - - - - - -
31/06:30am 25.3 E 12 15 1012.9 - - - - - - - - -
31/06:15am 25.2 E 12 - 1012.5 - - - - - - - - -
31/06:00am 25.2 E 11 13 1012.7 - - - - - - - - -
31/05:30am 24.9 E 12 14 1012.6 - - - - - - - - -
31/05:15am 24.9 E 12 - 1012.1 - - - - - - - - -
31/05:00am 24.8 E 11 13 1012.4 - - - - - - - - -
31/04:30am 24.9 ESE 9 11 1012.3 - - - - - - - - -
31/04:15am 24.7 ESE 10 - 1012.0 - - - - - - - - -
31/04:00am 25.0 ESE 10 11 1012.2 - - - - - - - - -
31/03:30am 24.9 E 7 9 1012.3 - - - - - - - - -
31/03:15am 24.7 ESE 8 9 1011.9 - - - - - - - - -
31/03:00am 24.8 ESE 7 9 1012.0 - - - - - - - - -
31/02:30am 24.7 E 8 9 1012.2 - - - - - - - - -
31/02:15am 24.9 E 8 - 1011.9 - - - - - - - - -
31/02:00am 24.9 E 10 12 1012.2 - - - - - - - - -
31/01:30am 24.9 E 12 14 1012.3 - - - - - - - - -
31/01:15am 24.8 E 12 - 1012.3 - - - - - - - - -
31/01:00am 24.8 E 12 14 1012.5 - - - - - - - - -
31/12:30am 24.8 ENE 13 15 1012.6 - - - - - - - - -
31/12:15am 24.8 E 14 - 1012.7 - - - - - - - - -
31/12:00am 25.0 E 14 17 1013.2 - - - - - - - - -
 
Date/Time
EST
Temp

°C
Wind Pressure Rain
since 9am
mm
Weather Cloud Vis
km
Sea
Height
m
Swell
Dir
 
Speed
knots
Gust
knots
hPa Trend Height
m
Period
s
Dir
30/11:30pm 24.9 E 16 18 1013.3 - - - - - - - - -
30/11:15pm 24.9 E 17 - 1013.2 - - - - - - - - -
30/11:00pm 25.3 E 13 15 1013.6 - - - - - - - - -
30/10:30pm 24.9 E 15 17 1013.6 - - - - - - - - -
30/10:15pm 25.0 E 16 - 1013.3 - - - - - - - - -
30/10:00pm 25.0 E 16 18 1013.6 - - - - - - - - -
30/09:30pm 25.2 E 17 19 1013.5 - - - - - - - - -
30/09:15pm 25.2 E 17 - 1013.1 - - - - - - - - -
30/09:00pm 25.4 E 15 19 1013.2 - - - - - - - - -
30/08:30pm 25.2 E 17 19 1012.9 - - - - - - - - -
30/08:15pm 25.1 E 17 - 1012.4 - - - - - - - - -
30/08:00pm 25.2 ESE 17 20 1012.7 - - - - - - - - -
30/07:30pm 25.3 ESE 17 19 1012.5 - - - - - - - - -
30/07:15pm 25.3 ESE 17 - 1012.1 - - - - - - - - -
30/07:00pm 25.3 ESE 17 19 1012.3 - - - - - - - - -
30/06:30pm 25.4 SE 14 16 1012.1 - - - - - - - - -
30/06:15pm 25.4 SE 13 - 1011.6 - - - - - - - - -
30/06:00pm 25.6 SE 13 16 1011.8 - - - - - - - - -
30/05:30pm 25.4 SE 13 16 1011.8 - - - - - - - - -
30/05:15pm 25.7 SE 13 - 1011.4 - - - - - - - - -
30/05:00pm 25.4 SE 12 14 1011.5 - - - - - - - - -
30/04:30pm 25.7 SE 11 13 1011.3 - - - - - - - - -
30/04:15pm 25.8 SE 11 - 1010.9 - - - - - - - - -
30/04:00pm 25.6 SE 10 12 1011.3 - - - - - - - - -
30/03:30pm 25.6 SE 9 11 1011.4 - - - - - - - - -
30/03:15pm 25.6 SE 9 - 1011.2 - - - - - - - - -
30/03:00pm 25.8 SE 10 12 1011.6 - - - - - - - - -
30/02:30pm 25.8 SE 9 11 1011.9 - - - - - - - - -
30/02:15pm 25.5 SSE 9 - 1011.6 - - - - - - - - -
30/02:00pm 25.6 SE 9 11 1011.9 - - - - - - - - -
30/01:30pm 25.4 SE 9 11 1012.1 - - - - - - - - -
30/01:15pm 25.3 SE 9 - 1011.9 - - - - - - - - -
30/01:00pm 25.4 SE 9 11 1012.4 - - - - - - - - -
30/12:30pm 25.5 SE 10 12 1012.9 - - - - - - - - -
30/12:15pm 25.4 SE 10 - 1012.9 - - - - - - - - -
30/12:00pm 25.4 SE 10 12 1013.6 - - - - - - - - -
30/11:30am 25.3 ESE 9 11 1014.1 - - - - - - - - -
30/11:15am 25.5 SE 9 - 1014.0 - - - - - - - - -
30/11:00am 25.3 ESE 9 11 1014.4 - - - - - - - - -
30/10:30am 25.8 SE 8 11 1014.7 - - - - - - - - -
30/10:15am 25.6 ESE 8 - 1014.6 - - - - - - - - -
30/10:00am 25.7 ESE 8 11 1015.0 - - - - - - - - -
30/09:30am 25.5 ESE 8 10 1015.0 - - - - - - - - -
30/09:15am 25.4 ESE 8 - 1014.7 - - - - - - - - -
30/09:00am 25.7 E 9 10 1014.9 - - - - - - - - -
30/08:30am 25.6 E 8 10 1014.8 - - - - - - - - -
30/08:15am 26.1 E 8 - 1014.4 - - - - - - - - -
30/08:00am 25.8 E 9 10 1014.5 - - - - - - - - -
30/07:30am 25.5 ENE 10 11 1014.1 - - - - - - - - -
30/07:15am 25.6 ENE 9 - 1013.7 - - - - - - - - -
30/07:00am 25.3 ENE 12 14 1013.8 - - - - - - - - -
30/06:30am 25.3 ENE 11 12 1013.5 - - - - - - - - -
30/06:15am 25.1 ENE 12 - 1013.0 - - - - - - - - -
30/06:00am 25.1 ENE 11 13 1013.3 - - - - - - - - -
30/05:30am 24.8 E 10 11 1013.0 - - - - - - - - -
30/05:15am 24.5 E 10 - 1012.5 - - - - - - - - -
30/05:00am 24.6 E 11 13 1012.6 - - - - - - - - -
30/04:30am 24.6 ENE 12 13 1012.1 - - - - - - - - -
30/04:15am 24.5 E 9 - 1011.7 - - - - - - - - -
30/04:00am 24.5 ENE 9 11 1012.2 - - - - - - - - -
30/03:30am 24.5 E 8 10 1012.0 - - - - - - - - -
30/03:15am 24.7 ENE 9 - 1011.7 - - - - - - - - -
30/03:00am 24.7 ENE 9 10 1011.9 - - - - - - - - -
30/02:30am 24.6 E 8 10 1012.1 - - - - - - - - -
30/02:15am 24.6 ENE 8 - 1012.0 - - - - - - - - -
30/02:00am 24.6 E 8 11 1012.2 - - - - - - - - -
30/01:30am 24.7 ENE 10 11 1012.4 - - - - - - - - -
30/01:15am 24.7 ENE 11 - 1012.1 - - - - - - - - -
30/01:00am 24.7 ENE 11 13 1012.5 - - - - - - - - -
30/12:30am 24.7 E 12 15 1013.0 - - - - - - - - -
30/12:15am 24.8 ENE 13 - 1012.9 - - - - - - - - -
30/12:00am 24.7 ENE 12 15 1013.3 - - - - - - - - -
 
Date/Time
EST
Temp

°C
Wind Pressure Rain
since 9am
mm
Weather Cloud Vis
km
Sea
Height
m
Swell
Dir
 
Speed
knots
Gust
knots
hPa Trend Height
m
Period
s
Dir
29/11:30pm 25.0 E 14 16 1013.5 - - - - - - - - -
29/11:15pm 25.0 ENE 13 - 1013.5 - - - - - - - - -
29/11:00pm 24.6 E 14 16 1013.9 - - - - - - - - -
29/10:30pm 24.8 E 14 16 1014.2 - - - - - - - - -
29/10:15pm 25.0 E 12 - 1013.9 - - - - - - - - -
29/10:00pm 24.7 E 13 15 1014.2 - - - - - - - - -
29/09:30pm 24.9 E 13 14 1014.1 - - - - - - - - -
29/09:15pm 24.8 E 12 - 1013.7 - - - - - - - - -
29/09:00pm 24.8 E 11 13 1014.0 - - - - - - - - -
29/08:30pm 25.0 ESE 10 12 1013.9 - - - - - - - - -
29/08:15pm 24.8 ESE 10 - 1013.5 - - - - - - - - -
29/08:00pm 24.9 ESE 10 12 1013.8 - - - - - - - - -
29/07:30pm 25.0 ESE 8 10 1013.6 - - - - - - - - -
29/07:15pm 24.9 ESE 9 - 1013.1 - - - - - - - - -
29/07:00pm 25.0 ESE 9 11 1013.3 - - - - - - - - -
29/06:30pm 25.0 SE 8 10 1013.0 - - - - - - - - -
29/06:15pm 25.1 ESE 8 - 1012.6 - - - - - - - - -
29/06:00pm 25.1 ESE 8 9 1012.8 - - - - - - - - -
29/05:30pm 25.1 ESE 8 9 1012.6 - - - - - - - - -
29/05:15pm 25.1 ESE 9 - 1012.2 - - - - - - - - -
29/05:00pm 25.3 SE 8 10 1012.4 - - - - - - - - -
29/04:30pm 25.1 ESE 9 10 1012.2 - - - - - - - - -
29/04:15pm 25.2 SE 9 - 1011.9 - - - - - - - - -
29/04:00pm 25.2 SE 8 9 1012.2 - - - - - - - - -
29/03:30pm 25.5 ESE 8 10 1012.1 - - - - - - - - -
29/03:15pm 25.2 ESE 9 - 1011.8 - - - - - - - - -
29/03:00pm 25.3 ESE 10 11 1012.2 - - - - - - - - -
29/02:30pm 25.2 ESE 10 11 1012.4 - - - - - - - - -
29/02:15pm 25.4 ESE 11 - 1012.3 - - - - - - - - -
29/02:00pm 25.6 SE 10 11 1012.7 - - - - - - - - -
29/01:30pm 25.3 ESE 7 9 1012.9 - - - - - - - - -
29/01:15pm 25.4 ESE 7 - 1012.8 - - - - - - - - -
29/01:00pm 25.1 ESE 8 10 1013.2 - - - - - - - - -
29/12:30pm 25.1 ESE 9 11 1013.4 - - - - - - - - -
29/12:15pm 25.3 ESE 9 - 1013.3 - - - - - - - - -
29/12:00pm 25.4 E 8 9 1013.7 - - - - - - - - -
29/11:30am 25.2 E 10 12 1013.9 - - - - - - - - -
29/11:15am 25.3 E 10 - 1013.6 - - - - - - - - -
29/11:00am 25.2 E 10 11 1014.2 - - - - - - - - -
29/10:30am 25.1 ESE 11 13 1014.3 - - - - - - - - -
29/10:15am 25.2 E 10 - 1014.3 - - - - - - - - -
29/10:00am 25.3 ESE 9 11 1014.7 - - - - - - - - -
29/09:30am 25.5 E 9 11 1014.9 - - - - - - - - -
29/09:15am 25.8 ESE 9 - 1014.6 - - - - - - - - -
29/09:00am 25.5 E 9 11 1014.9 - - - - - - - - -
29/08:30am 25.6 E 7 9 1014.8 - - - - - - - - -
29/08:15am 25.7 E 8 - 1014.4 - - - - - - - - -
29/08:00am 26.0 E 6 7 1014.7 - - - - - - - - -
29/07:30am 25.8 ENE 6 8 1014.3 - - - - - - - - -
29/07:15am 25.9 ENE 7 - 1013.7 - - - - - - - - -
29/07:00am 25.5 E 7 9 1013.9 - - - - - - - - -
29/06:30am 24.8 E 9 10 1013.5 - - - - - - - - -
29/06:15am 24.9 E 9 - 1012.9 - - - - - - - - -
29/05:30am 24.4 E 10 11 1012.7 - - - - - - - - -
29/05:15am 24.4 E 10 - 1012.2 - - - - - - - - -
29/05:00am 24.5 ENE 6 8 1012.3 - - - - - - - - -
29/04:30am 24.5 ESE 4 5 1012.2 - - - - - - - - -
29/04:15am 24.4 ESE 5 - 1011.8 - - - - - - - - -
29/04:00am 24.5 ESE 6 7 1011.9 - - - - - - - - -
29/03:30am 24.5 ESE 6 8 1011.7 - - - - - - - - -
29/03:15am 24.6 ESE 6 - 1011.3 - - - - - - - - -
29/03:00am 24.5 E 7 8 1011.6 - - - - - - - - -
29/02:30am 24.7 E 5 7 1011.6 - - - - - - - - -
29/02:15am 24.6 ESE 4 - 1011.4 - - - - - - - - -
29/02:00am 24.8 E 5 7 1011.9 - - - - - - - - -
29/01:30am 24.6 E 6 7 1012.2 - - - - - - - - -
29/01:15am 24.7 E 7 - 1012.0 - - - - - - - - -
29/01:00am 24.8 ENE 7 8 1012.5 - - - - - - - - -
29/12:30am 24.7 E 7 8 1012.8 - - - - - - - - -
29/12:15am 24.7 E 6 - 1012.7 - - - - - - - - -
29/12:00am 24.7 E 6 7 1013.1 - - - - - - - - -
 
Date/Time
EST
Temp

°C
Wind Pressure Rain
since 9am
mm
Weather Cloud Vis
km
Sea
Height
m
Swell
Dir
 
Speed
knots
Gust
knots
hPa Trend Height
m
Period
s
Dir
28/11:30pm 24.9 ENE 7 8 1013.5 - - - - - - - - -
28/11:15pm 24.8 ENE 8 - 1013.5 - - - - - - - - -
28/11:00pm 24.9 ENE 7 9 1014.0 - - - - - - - - -
28/10:30pm 24.9 ENE 9 11 1014.3 - - - - - - - - -
28/10:15pm 25.0 NE 8 - 1014.1 - - - - - - - - -
28/09:30pm 24.9 ENE 9 11 1014.4 - - - - - - - - -
28/09:15pm 25.0 E 9 - 1013.9 - - - - - - - - -
28/09:00pm 25.0 E 9 11 1014.0 - - - - - - - - -
28/08:30pm 25.0 E 10 13 1013.8 - - - - - - - - -
28/08:15pm 25.2 E 10 - 1013.4 - - - - - - - - -
28/08:00pm 25.2 E 9 11 1013.7 - - - - - - - - -
28/07:30pm 25.2 E 9 10 1013.5 - - - - - - - - -
28/07:15pm 25.1 E 9 - 1013.1 - - - - - - - - -
28/07:00pm 25.2 E 8 9 1013.4 - - - - - - - - -
28/06:30pm 25.2 E 9 11 1013.0 - - - - - - - - -
28/06:15pm 25.4 E 8 - 1012.7 - - - - - - - - -
28/06:00pm 25.2 E 9 11 1012.8 - - - - - - - - -
28/05:30pm 25.3 ESE 8 9 1012.7 - - - - - - - - -
28/05:15pm 25.3 ESE 7 - 1012.3 - - - - - - - - -
28/05:00pm 25.3 ESE 7 8 1012.4 - - - - - - - - -
28/04:30pm 25.2 E 7 9 1012.2 - - - - - - - - -
28/04:15pm 25.3 ESE 7 - 1011.9 - - - - - - - - -
28/04:00pm 25.4 ESE 6 8 1012.2 - - - - - - - - -

Other Formats:

Comma delimited format used in spreadsheet applications
http://www.bom.gov.au/fwo/IDQ60701/IDQ60701.94289.axf

JavaScript Object Notation format (JSON) in row-major order
http://www.bom.gov.au/fwo/IDQ60701/IDQ60701.94289.json